Time;durP1;ratioP1;P1;durP2;ratioP2;P2;SDS_P1;SDS_P2;PMS_P1;PMS_P2;Temp;Humidity;BMP_temperature;BMP_pressure;BME280_temperature;BME280_humidity;BME280_pressure;Samples;Min_cycle;Max_cycle;Signal;HPM_P1;HPM_P2
2022/08/13 00:01:36;;;;;;;11.10;7.60;;;;;;;18.88;100.00;94754.91;5015759;28;20049;-66
2022/08/13 00:04:17;;;;;;;8.40;7.20;;;;;;;18.84;100.00;94753.91;5030691;28;20101;-67
2022/08/13 00:07:08;;;;;;;8.75;7.75;;;;;;;18.85;100.00;94754.69;5027018;28;20445;-66
2022/08/13 00:09:39;;;;;;;9.95;7.35;;;;;;;18.86;100.00;94746.50;4991185;28;20480;-66
2022/08/13 00:14:59;;;;;;;7.18;6.45;;;;;;;18.76;100.00;94738.66;5027138;28;20602;-68
2022/08/13 00:17:31;;;;;;;10.15;6.43;;;;;;;18.74;100.00;94735.53;5015941;28;20042;-68
2022/08/13 00:20:23;;;;;;;11.18;6.28;;;;;;;18.70;100.00;94734.53;5023603;28;20045;-68
2022/08/13 00:22:51;;;;;;;11.00;5.93;;;;;;;18.73;100.00;94739.25;5025569;28;20051;-67
2022/08/13 00:25:26;;;;;;;13.18;6.50;;;;;;;18.69;100.00;94730.31;5010056;28;20435;-68
2022/08/13 00:28:10;;;;;;;8.15;6.15;;;;;;;18.70;100.00;94731.91;5023543;28;20544;-67
2022/08/13 00:30:38;;;;;;;10.50;5.72;;;;;;;18.56;100.00;94704.66;5024081;28;20041;-67
2022/08/13 00:33:15;;;;;;;16.50;6.70;;;;;;;18.69;100.00;94720.59;5025837;28;20080;-67
2022/08/13 00:35:49;;;;;;;7.03;5.93;;;;;;;18.71;100.00;94729.00;5025955;28;20120;-67
2022/08/13 00:38:22;;;;;;;;;;;;;;;18.71;100.00;94729.00;5026262;28;20044;-68
2022/08/13 00:41:03;;;;;;;6.75;5.45;;;;;;;18.70;100.00;94726.63;5026524;28;19956;-67
2022/08/13 00:43:34;;;;;;;10.20;6.10;;;;;;;18.71;100.00;94733.50;5028821;28;20046;-67
2022/08/13 00:46:03;;;;;;;9.82;6.10;;;;;;;18.68;100.00;94724.28;5029701;28;20458;-67
2022/08/13 00:48:47;;;;;;;7.32;5.95;;;;;;;18.69;100.00;94725.84;5026120;28;20095;-67
2022/08/13 00:51:23;;;;;;;6.45;5.65;;;;;;;18.67;100.00;94721.91;5025630;28;20042;-68
2022/08/13 00:54:16;;;;;;;11.52;5.65;;;;;;;18.65;100.00;94714.28;5029155;28;20037;-67
2022/08/13 00:56:44;;;;;;;6.18;5.10;;;;;;;18.65;100.00;94718.78;5027067;28;20052;-68
2022/08/13 00:59:13;;;;;;;9.93;6.30;;;;;;;18.57;100.00;94717.56;5006901;28;20049;-68
2022/08/13 01:01:46;;;;;;;11.30;5.70;;;;;;;18.52;100.00;94704.44;5021706;28;20422;-68
2022/08/13 01:04:21;;;;;;;6.85;6.07;;;;;;;18.51;100.00;94716.84;5021847;28;20497;-68
2022/08/13 01:06:55;;;;;;;8.35;5.90;;;;;;;18.47;100.00;94713.19;5023510;28;20466;-68
2022/08/13 01:09:29;;;;;;;6.65;5.53;;;;;;;18.40;100.00;94707.50;5016505;28;20050;-68
2022/08/13 01:12:21;;;;;;;7.38;5.40;;;;;;;18.37;100.00;94702.78;5026066;28;20057;-66
2022/08/13 01:14:55;;;;;;;11.15;6.32;;;;;;;18.35;100.00;94694.38;5021968;28;20049;-68
2022/08/13 01:17:24;;;;;;;8.82;5.93;;;;;;;18.35;100.00;94699.66;5023935;28;20049;-68
2022/08/13 01:20:18;;;;;;;12.00;6.32;;;;;;;18.36;100.00;94695.16;5022990;28;20049;-67
2022/08/13 01:23:01;;;;;;;8.02;6.60;;;;;;;18.33;100.00;94701.81;5021510;28;20415;-67
2022/08/13 01:25:30;;;;;;;7.57;6.70;;;;;;;18.32;100.00;94701.00;5020366;28;20537;-67
2022/08/13 01:28:18;;;;;;;10.02;6.55;;;;;;;18.27;100.00;94702.91;5021831;28;20041;-67
2022/08/13 01:30:47;;;;;;;9.10;6.50;;;;;;;18.23;100.00;94701.91;5004134;28;20077;-65
2022/08/13 01:33:17;;;;;;;11.63;6.90;;;;;;;18.28;100.00;94704.50;5020787;28;20534;-65
2022/08/13 01:35:46;;;;;;;11.73;6.90;;;;;;;18.34;100.00;94698.09;5010372;28;20044;-65
2022/08/13 01:38:15;;;;;;;7.78;6.32;;;;;;;18.33;100.00;94701.81;5015693;28;20054;-65
2022/08/13 01:40:48;;;;;;;9.40;6.70;;;;;;;18.22;100.00;94697.69;5014970;28;20041;-65
2022/08/13 01:43:19;;;;;;;7.95;6.97;;;;;;;18.22;100.00;94700.34;5019411;28;20056;-65
2022/08/13 01:45:50;;;;;;;8.23;6.30;;;;;;;18.22;100.00;94689.78;5023370;28;20219;-66
2022/08/13 01:51:32;;;;;;;11.50;6.43;;;;;;;18.19;100.00;94690.38;5019331;28;20045;-65
2022/08/13 01:54:11;;;;;;;8.07;6.38;;;;;;;18.23;100.00;94699.28;5027779;28;20110;-65
2022/08/13 01:57:01;;;;;;;9.52;6.75;;;;;;;18.26;100.00;94702.13;5009707;28;20169;-65
2022/08/13 01:59:31;;;;;;;8.45;7.32;;;;;;;18.31;100.00;94706.53;5000770;28;20049;-65
2022/08/13 02:02:18;;;;;;;12.88;7.40;;;;;;;18.33;100.00;94701.81;5002255;28;20110;-65
2022/08/13 02:05:05;;;;;;;10.00;8.15;;;;;;;18.28;100.00;94699.22;4995306;28;20044;-65
2022/08/13 02:07:39;;;;;;;15.73;7.47;;;;;;;18.24;100.00;94698.19;5024486;28;20429;-65
2022/08/13 02:10:25;;;;;;;11.23;8.02;;;;;;;18.22;100.00;94695.06;5025351;28;20049;-66
2022/08/13 02:12:52;;;;;;;12.32;8.13;;;;;;;18.20;100.00;94694.56;5027564;28;20103;-64
2022/08/13 02:15:21;;;;;;;10.68;7.60;;;;;;;18.19;100.00;94690.38;5018692;28;20477;-65
2022/08/13 02:18:17;;;;;;;9.63;7.63;;;;;;;18.18;100.00;94683.53;5012106;28;20486;-65
2022/08/13 02:20:57;;;;;;;8.82;7.07;;;;;;;18.19;100.00;94685.88;5012249;28;20107;-65
2022/08/13 02:23:32;;;;;;;11.05;7.63;;;;;;;18.22;100.00;94684.50;5011037;28;20055;-66
2022/08/13 02:26:23;;;;;;;12.05;6.97;;;;;;;18.20;100.00;94679.53;5021822;28;20049;-64
2022/08/13 02:28:58;;;;;;;10.80;7.25;;;;;;;18.20;100.00;94681.38;4989495;28;20497;-65
2022/08/13 02:31:28;;;;;;;11.52;7.45;;;;;;;18.18;100.00;94678.25;5026061;28;20508;-65
2022/08/13 02:34:16;;;;;;;9.73;7.03;;;;;;;18.18;100.00;94683.53;5009504;28;20048;-65
2022/08/13 02:36:49;;;;;;;10.10;7.30;;;;;;;18.13;100.00;94669.34;5021515;28;20053;-65
2022/08/13 02:39:36;;;;;;;11.40;7.50;;;;;;;18.24;100.00;94688.47;5008308;28;20088;-64
2022/08/13 02:42:10;;;;;;;13.23;7.35;;;;;;;18.25;100.00;94684.75;4996481;28;20038;-65
2022/08/13 02:44:47;;;;;;;9.82;6.60;;;;;;;18.25;100.00;94681.31;4976094;28;20510;-65
2022/08/13 02:47:19;;;;;;;8.80;6.82;;;;;;;18.24;100.00;94683.19;5023815;28;20080;-65
2022/08/13 02:50:07;;;;;;;14.95;7.00;;;;;;;18.22;100.00;94684.50;5023691;28;20064;-65
2022/08/13 02:52:36;;;;;;;9.70;6.85;;;;;;;18.24;100.00;94682.38;5014288;28;20049;-65
2022/08/13 02:55:17;;;;;;;8.18;7.35;;;;;;;18.24;100.00;94692.91;5015211;28;20045;-65
2022/08/13 02:57:45;;;;;;;9.65;6.55;;;;;;;18.25;100.00;94679.47;5024031;28;20498;-65
2022/08/13 03:00:19;;;;;;;8.25;6.78;;;;;;;18.25;100.00;94682.09;5025350;28;20051;-65
2022/08/13 03:02:57;;;;;;;8.85;6.57;;;;;;;18.26;100.00;94690.81;5025322;28;20441;-65
2022/08/13 03:05:30;;;;;;;8.18;6.63;;;;;;;18.33;100.00;94691.25;5027701;28;20044;-65
2022/08/13 03:08:16;;;;;;;9.75;6.75;;;;;;;18.34;100.00;94682.25;5022198;28;20044;-65
2022/08/13 03:11:04;;;;;;;8.27;6.78;;;;;;;18.24;100.00;94692.91;5024208;28;20060;-65
2022/08/13 03:13:36;;;;;;;7.28;6.47;;;;;;;18.22;100.00;94684.50;5027975;28;20553;-64
2022/08/13 03:16:15;;;;;;;14.30;7.10;;;;;;;18.27;100.00;94684.47;5023773;28;20056;-64
2022/08/13 03:18:46;;;;;;;8.00;6.15;;;;;;;18.28;100.00;94678.13;5008780;28;20050;-65
2022/08/13 03:21:26;;;;;;;7.38;6.40;;;;;;;18.29;100.00;94684.97;5028731;28;20077;-65
2022/08/13 03:24:17;;;;;;;7.43;6.40;;;;;;;18.27;100.00;94677.31;5024114;28;20056;-65
2022/08/13 03:26:51;;;;;;;7.80;6.57;;;;;;;18.36;100.00;94695.94;5023013;28;20045;-64
2022/08/13 03:29:19;;;;;;;8.35;6.80;;;;;;;18.37;100.00;94689.63;5019451;28;20558;-65
2022/08/13 03:31:47;;;;;;;6.47;5.63;;;;;;;18.41;100.00;94693.25;5005024;28;20041;-65
2022/08/13 03:34:21;;;;;;;;;;;;;;;18.43;100.00;94693.75;5020288;28;20061;-65
2022/08/13 03:36:48;;;;;;;7.70;5.65;;;;;;;18.38;100.00;94693.03;5022396;28;19947;-65
2022/08/13 03:39:16;;;;;;;12.68;6.15;;;;;;;18.37;100.00;94694.88;5016244;28;20406;-64
2022/08/13 03:41:44;;;;;;;8.20;5.97;;;;;;;18.33;100.00;94696.53;5012885;28;20045;-65
2022/08/13 03:44:17;;;;;;;;;;;;;;;18.38;100.00;94693.03;5017628;28;20424;-65
2022/08/13 03:46:54;;;;;;;9.23;7.80;;;;;;;18.36;100.00;94701.22;5013020;28;20382;-66
2022/08/13 03:49:22;;;;;;;17.63;7.43;;;;;;;18.24;100.00;94687.66;5011939;28;20116;-66
2022/08/13 03:51:55;;;;;;;10.77;7.47;;;;;;;18.26;100.00;94686.31;5014116;28;20049;-65
2022/08/13 03:54:25;;;;;;;10.93;7.25;;;;;;;18.35;100.00;94699.66;5025224;28;20049;-66
2022/08/13 03:56:52;;;;;;;10.05;7.60;;;;;;;18.33;100.00;94691.25;5018418;28;20486;-66
2022/08/13 03:59:31;;;;;;;8.00;7.20;;;;;;;18.43;100.00;94706.94;4997391;28;20049;-65
2022/08/13 04:02:15;;;;;;;9.35;7.32;;;;;;;18.48;100.00;94706.88;5003214;28;20600;-65
2022/08/13 04:04:50;;;;;;;8.77;7.18;;;;;;;18.50;100.00;94702.09;5023975;28;20051;-66
2022/08/13 04:07:20;;;;;;;9.75;7.65;;;;;;;18.56;100.00;94702.03;5022650;28;20057;-66
2022/08/13 04:09:54;;;;;;;10.70;7.38;;;;;;;18.51;100.00;94687.84;5023066;28;20136;-65
2022/08/13 04:12:22;;;;;;;9.30;7.07;;;;;;;18.68;100.00;94703.16;5027306;28;20042;-66
2022/08/13 04:14:50;;;;;;;9.05;7.40;;;;;;;18.76;100.00;94699.09;5028180;28;20050;-66
2022/08/13 04:17:29;;;;;;;11.25;6.88;;;;;;;18.79;100.00;94692.47;5027493;28;20045;-66
2022/08/13 04:20:02;;;;;;;8.63;6.80;;;;;;;18.86;100.00;94699.00;5030432;28;20132;-65
2022/08/13 04:22:33;;;;;;;9.40;6.93;;;;;;;18.86;100.00;94699.00;5029409;28;20053;-66
2022/08/13 04:25:07;;;;;;;8.55;6.45;;;;;;;18.88;100.00;94702.13;5030836;28;20076;-66
2022/08/13 04:27:54;;;;;;;7.35;6.47;;;;;;;18.88;100.00;94701.34;5027951;28;20525;-65
2022/08/13 04:30:29;;;;;;;8.93;6.32;;;;;;;18.76;100.00;94672.72;5029175;28;20056;-66
2022/08/13 04:32:58;;;;;;;7.20;6.07;;;;;;;18.94;100.00;94705.47;5026696;28;20095;-66
2022/08/13 04:35:48;;;;;;;7.10;6.10;;;;;;;18.99;100.00;94702.00;5017981;28;20107;-66
2022/08/13 04:38:24;;;;;;;8.68;6.25;;;;;;;18.96;100.00;94697.28;5025646;28;20045;-73
2022/08/13 04:40:52;;;;;;;8.23;5.50;;;;;;;19.02;100.00;94701.41;5030048;28;20049;-73
2022/08/13 04:43:24;;;;;;;6.97;5.82;;;;;;;19.06;100.00;94705.03;5029904;28;20049;-73
2022/08/13 04:45:51;;;;;;;7.45;5.82;;;;;;;19.08;100.00;94701.03;5025436;28;20052;-73
2022/08/13 04:48:18;;;;;;;6.53;5.93;;;;;;;19.06;100.00;94691.84;5022311;28;20049;-72
2022/08/13 04:50:48;;;;;;;9.70;6.10;;;;;;;19.10;100.00;94687.56;4981693;28;20465;-74
2022/08/13 04:53:21;;;;;;;8.52;6.22;;;;;;;19.15;100.00;94694.63;5020704;28;20049;-73
2022/08/13 04:55:50;;;;;;;10.40;6.82;;;;;;;18.67;100.00;94613.78;4968774;28;20053;-73
2022/08/13 04:58:37;;;;;;;8.43;6.10;;;;;;;19.22;100.00;94693.19;5013052;28;20057;-73
2022/08/13 05:01:09;;;;;;;7.78;5.93;;;;;;;19.27;100.00;94701.03;5029927;28;20565;-72
2022/08/13 05:03:56;;;;;;;8.55;6.05;;;;;;;19.34;100.00;94691.94;5024444;28;20045;-72
2022/08/13 05:06:49;;;;;;;7.60;5.32;;;;;;;19.42;100.00;94683.38;5003366;28;20046;-72
2022/08/13 05:09:20;;;;;;;12.07;6.15;;;;;;;19.49;100.00;94689.06;5023622;28;20594;-72
2022/08/13 05:11:58;;;;;;;11.35;6.13;;;;;;;19.50;100.00;94685.34;5025505;28;20075;-71
2022/08/13 05:14:32;;;;;;;13.07;5.93;;;;;;;19.66;100.00;94697.22;5005998;28;20557;-72
2022/08/13 05:17:01;;;;;;;10.23;5.28;;;;;;;19.72;100.00;94686.56;5026965;28;20049;-72
2022/08/13 05:19:28;;;;;;;8.80;6.03;;;;;;;19.82;100.00;94696.94;5012046;28;20506;-73
2022/08/13 05:22:06;;;;;;;9.10;5.72;;;;;;;19.89;99.25;94693.94;5030997;28;20037;-72
2022/08/13 05:24:43;;;;;;;11.75;6.15;;;;;;;19.91;96.29;94689.91;5026074;28;20065;-72
2022/08/13 05:27:31;;;;;;;6.63;5.75;;;;;;;19.91;96.23;94687.28;5008258;28;20437;-71
2022/08/13 05:30:07;;;;;;;10.07;5.75;;;;;;;19.95;96.18;94690.91;5028336;28;20137;-73
2022/08/13 05:32:57;;;;;;;11.13;6.35;;;;;;;20.03;95.91;94698.13;5028093;28;20049;-71
2022/08/13 05:35:26;;;;;;;10.60;5.50;;;;;;;20.00;94.99;94698.72;5026494;28;20585;-72
2022/08/13 05:38:16;;;;;;;9.65;6.07;;;;;;;20.09;94.43;94690.13;4927153;28;20043;-71
2022/08/13 05:40:58;;;;;;;13.27;6.65;;;;;;;20.08;94.75;94688.53;4984885;28;20139;-71
2022/08/13 05:43:28;;;;;;;9.05;6.40;;;;;;;20.07;94.46;94681.69;4929402;28;20150;-72
2022/08/13 05:46:04;;;;;;;8.07;5.95;;;;;;;20.08;95.23;94675.31;4972715;28;20174;-72
2022/08/13 05:48:37;;;;;;;9.60;5.57;;;;;;;20.12;94.32;94692.97;4958578;28;20042;-71
2022/08/13 05:51:08;;;;;;;7.93;6.35;;;;;;;20.21;94.52;94693.06;5022388;28;20564;-72
2022/08/13 05:53:37;;;;;;;15.80;7.95;;;;;;;20.22;94.46;94689.31;5015574;28;20047;-73
2022/08/13 05:56:30;;;;;;;13.18;9.00;;;;;;;20.14;95.69;94692.66;5011200;28;20297;-73
2022/08/13 05:58:59;;;;;;;9.60;8.57;;;;;;;20.09;96.61;94680.31;5021703;28;20041;-71
2022/08/13 06:04:22;;;;;;;7.43;6.60;;;;;;;19.81;99.13;94690.13;4999341;28;20056;-71
2022/08/13 06:07:09;;;;;;;9.20;7.05;;;;;;;19.63;100.00;94695.16;5024115;28;20537;-72
2022/08/13 06:09:36;;;;;;;9.27;6.85;;;;;;;19.45;100.00;94680.16;4990202;28;20036;-72
2022/08/13 06:12:04;;;;;;;12.88;7.75;;;;;;;19.56;100.00;94694.75;5013566;28;20041;-72
2022/08/13 06:14:54;;;;;;;11.85;8.02;;;;;;;19.47;100.00;94707.03;5011057;28;20053;-71
2022/08/13 06:17:23;;;;;;;15.68;7.90;;;;;;;19.49;100.00;94689.06;5015406;28;20597;-71
2022/08/13 06:19:52;;;;;;;12.27;7.35;;;;;;;19.47;100.00;94688.56;4938973;28;20401;-71
2022/08/13 06:22:21;;;;;;;10.77;8.45;;;;;;;19.48;100.00;94692.75;4975980;28;20048;-72
2022/08/13 06:24:50;;;;;;;16.13;8.80;;;;;;;19.49;100.00;94694.34;4958712;28;20046;-72
2022/08/13 06:27:24;;;;;;;13.48;9.13;;;;;;;19.53;100.00;94705.88;5003142;28;20092;-72
2022/08/13 06:30:18;;;;;;;13.20;9.35;;;;;;;19.54;100.00;94686.31;5006385;28;20046;-73
2022/08/13 06:33:02;;;;;;;14.10;9.93;;;;;;;19.54;100.00;94681.03;5026352;28;20041;-73
2022/08/13 06:35:54;;;;;;;12.73;9.35;;;;;;;19.71;100.00;94690.25;5023486;28;20048;-72
2022/08/13 06:38:31;;;;;;;10.73;9.18;;;;;;;19.82;100.00;94707.53;5005180;28;20289;-72
2022/08/13 06:41:01;;;;;;;12.35;9.07;;;;;;;19.86;100.00;94705.84;5004329;28;20482;-72
2022/08/13 06:43:31;;;;;;;14.00;9.40;;;;;;;19.92;100.00;94703.94;5006732;28;20481;-73
2022/08/13 06:46:18;;;;;;;12.40;9.32;;;;;;;19.96;100.00;94710.97;5010869;28;20050;-72
2022/08/13 06:48:58;;;;;;;13.25;8.80;;;;;;;19.95;100.00;94696.19;4959376;28;20633;-72
2022/08/13 06:51:30;;;;;;;11.15;8.68;;;;;;;20.03;100.00;94698.13;5003035;28;20530;-72
2022/08/13 06:54:08;;;;;;;9.40;8.40;;;;;;;20.14;98.84;94703.25;5021309;28;20661;-72
2022/08/13 06:56:59;;;;;;;16.08;8.75;;;;;;;20.34;97.51;94702.06;5021708;28;20132;-68
2022/08/13 06:59:48;;;;;;;11.57;8.50;;;;;;;20.28;96.76;94695.31;5020579;28;20056;-69
2022/08/13 07:02:36;;;;;;;10.77;9.43;;;;;;;20.54;97.32;94706.13;5021440;28;20087;-70
2022/08/13 07:05:04;;;;;;;13.27;8.93;;;;;;;20.65;96.42;94707.50;5016056;28;20052;-70
2022/08/13 07:07:40;;;;;;;11.85;8.98;;;;;;;20.60;96.10;94694.38;5022559;28;20068;-70
2022/08/13 07:10:07;;;;;;;11.77;8.73;;;;;;;20.72;94.09;94707.88;5001433;28;20076;-70
2022/08/13 07:12:37;;;;;;;10.00;7.82;;;;;;;20.85;93.43;94710.81;5021954;28;20041;-69
2022/08/13 07:15:10;;;;;;;9.93;8.18;;;;;;;21.03;93.52;94715.19;5016000;28;20569;-71
2022/08/13 07:17:50;;;;;;;9.32;7.53;;;;;;;21.07;92.40;94713.50;5017225;28;20172;-68
2022/08/13 07:20:22;;;;;;;10.52;8.07;;;;;;;21.00;91.92;94702.53;5016951;28;20454;-69
2022/08/13 07:22:55;;;;;;;12.68;8.20;;;;;;;21.12;92.29;94710.72;5020459;28;20049;-68
2022/08/13 07:25:44;;;;;;;10.80;8.30;;;;;;;21.31;92.33;94715.06;5005892;28;20127;-69
2022/08/13 07:28:29;;;;;;;10.80;6.38;;;;;;;21.28;87.43;94723.59;5021478;28;20069;-71
2022/08/13 07:31:24;;;;;;;9.25;6.93;;;;;;;21.10;87.75;94712.88;5018027;28;20049;-72
2022/08/13 07:34:11;;;;;;;7.63;6.22;;;;;;;21.01;89.57;94719.97;5003573;28;20051;-70
2022/08/13 07:36:40;;;;;;;13.35;7.82;;;;;;;20.98;90.50;94720.59;5016201;28;20136;-71
2022/08/13 07:39:16;;;;;;;13.93;7.65;;;;;;;20.98;89.01;94708.13;5021109;28;20042;-71
2022/08/13 07:41:49;;;;;;;17.20;8.93;;;;;;;21.08;89.23;94720.34;5015542;28;20049;-70
2022/08/13 07:44:30;;;;;;;11.35;9.07;;;;;;;21.11;89.68;94711.81;5000281;28;20077;-72
2022/08/13 07:47:20;;;;;;;12.60;8.90;;;;;;;21.33;88.24;94713.66;5002148;28;20052;-73
2022/08/13 07:49:50;;;;;;;11.73;9.15;;;;;;;21.45;87.27;94715.81;5025364;28;20076;-70
2022/08/13 07:52:18;;;;;;;12.90;10.43;;;;;;;21.45;88.08;94718.47;5008193;28;20124;-67
2022/08/13 07:54:47;;;;;;;11.68;10.00;;;;;;;21.32;88.81;94708.66;5026141;28;20437;-68
2022/08/13 07:57:17;;;;;;;16.48;11.38;;;;;;;21.36;89.05;94709.66;5024577;28;20522;-68
2022/08/13 07:59:53;;;;;;;15.73;12.23;;;;;;;21.43;88.93;94707.34;4981532;28;20049;-70
2022/08/13 08:02:40;;;;;;;16.40;12.00;;;;;;;21.44;88.83;94694.88;5019337;28;20038;-76
2022/08/13 08:05:13;;;;;;;15.18;11.48;;;;;;;21.50;87.35;94705.09;5004556;28;20504;-70
2022/08/13 08:07:41;;;;;;;15.25;11.90;;;;;;;21.62;87.21;94703.75;5007923;28;20048;-71
2022/08/13 08:10:29;;;;;;;18.83;10.90;;;;;;;21.58;85.75;94712.28;5016065;28;20049;-70
2022/08/13 08:12:59;;;;;;;14.95;11.80;;;;;;;21.69;84.53;94712.03;5027432;28;20045;-70
2022/08/13 08:15:27;;;;;;;17.45;10.95;;;;;;;21.78;84.80;94710.22;5024016;28;20050;-69
2022/08/13 08:18:14;;;;;;;19.17;11.00;;;;;;;22.04;83.95;94706.88;5020806;28;20322;-69
2022/08/13 08:21:08;;;;;;;14.90;11.07;;;;;;;22.20;83.45;94700.09;5026641;28;20041;-69
2022/08/13 08:24:01;;;;;;;14.68;12.00;;;;;;;22.37;83.55;94703.94;5027902;28;20434;-69
2022/08/13 08:26:34;;;;;;;15.48;11.70;;;;;;;22.45;82.55;94705.81;5029902;28;20041;-70
2022/08/13 08:29:08;;;;;;;13.68;10.90;;;;;;;22.52;80.25;94706.13;5024253;28;20442;-70
2022/08/13 08:31:40;;;;;;;16.95;10.50;;;;;;;22.61;79.97;94698.97;5007265;28;20044;-68
2022/08/13 08:34:28;;;;;;;13.75;10.80;;;;;;;22.74;80.15;94707.09;5007375;28;20053;-68
2022/08/13 08:36:56;;;;;;;14.65;11.65;;;;;;;22.77;79.85;94703.84;5004161;28;20050;-69
2022/08/13 08:45:13;;;;;;;12.82;10.52;;;;;;;22.87;78.16;94695.56;5028956;28;20052;-69
2022/08/13 08:47:43;;;;;;;12.93;10.48;;;;;;;22.96;78.52;94708.81;5006933;28;20107;-68
2022/08/13 08:50:16;;;;;;;13.45;10.82;;;;;;;23.00;77.80;94694.63;5026362;28;20045;-69
2022/08/13 08:56:05;;;;;;;13.77;10.32;;;;;;;23.03;77.77;94699.31;5025964;28;20163;-68
2022/08/13 08:58:35;;;;;;;12.25;10.38;;;;;;;23.04;78.84;94698.25;5025571;28;20084;-68
2022/08/13 09:01:07;;;;;;;13.23;10.13;;;;;;;23.06;78.66;94693.38;5024942;28;20045;-67
2022/08/13 09:03:42;;;;;;;13.30;8.85;;;;;;;23.10;76.44;94690.88;5009909;28;20045;-68
2022/08/13 09:06:28;;;;;;;18.77;10.00;;;;;;;23.00;76.30;94688.53;5030128;28;20068;-68
2022/08/13 09:09:17;;;;;;;14.75;8.68;;;;;;;23.07;77.54;94697.63;5022545;28;20139;-68
2022/08/13 09:11:52;;;;;;;12.50;9.18;;;;;;;23.09;76.20;94692.78;5024280;28;20589;-68
2022/08/13 09:14:26;;;;;;;11.07;9.32;;;;;;;23.11;76.99;94694.34;5028236;28;20044;-66
2022/08/13 09:16:58;;;;;;;14.20;10.45;;;;;;;23.14;76.94;94689.19;5030031;28;20055;-66
2022/08/13 09:19:27;;;;;;;14.73;10.90;;;;;;;23.14;77.98;94693.69;5023605;28;20148;-66
2022/08/13 09:22:17;;;;;;;11.23;9.77;;;;;;;22.98;77.89;94691.50;5015458;28;20136;-66
2022/08/13 09:24:52;;;;;;;13.52;10.40;;;;;;;23.04;78.26;94690.28;5017467;28;20627;-67
2022/08/13 09:27:19;;;;;;;15.88;10.18;;;;;;;23.11;78.28;94683.72;4964941;28;20498;-68
2022/08/13 09:29:50;;;;;;;18.17;8.40;;;;;;;23.16;77.08;94691.53;4945578;28;20092;-68
2022/08/13 09:32:31;;;;;;;9.73;8.73;;;;;;;23.11;75.15;94689.81;4974877;28;20037;-68
2022/08/13 09:35:02;;;;;;;11.60;9.10;;;;;;;23.11;73.70;94689.81;4990229;28;20048;-68
2022/08/13 09:37:30;;;;;;;12.45;8.80;;;;;;;23.16;75.03;94687.00;4999042;28;20713;-68
2022/08/13 09:40:22;;;;;;;15.48;10.35;;;;;;;23.20;73.50;94687.91;5017502;28;20045;-67
2022/08/13 09:43:21;;;;;;;12.60;10.13;;;;;;;23.17;73.49;94687.75;4977147;28;20101;-67
2022/08/13 09:46:09;;;;;;;11.57;10.32;;;;;;;23.16;74.30;94691.53;5015634;28;20068;-67
2022/08/13 09:48:37;;;;;;;13.52;9.98;;;;;;;22.94;74.52;94664.03;4998110;28;20748;-67
2022/08/13 09:51:13;;;;;;;11.40;9.27;;;;;;;22.93;74.33;94691.66;4999881;28;20053;-67
2022/08/13 09:54:01;;;;;;;16.98;10.68;;;;;;;22.83;75.68;94684.78;4921271;28;20047;-67
2022/08/13 09:56:38;;;;;;;14.20;10.48;;;;;;;22.84;74.73;94688.22;4998961;28;20050;-66
2022/08/13 09:59:10;;;;;;;18.67;10.63;;;;;;;22.77;76.64;94690.56;5014178;28;20433;-67
2022/08/13 10:01:56;;;;;;;10.05;8.35;;;;;;;22.67;78.19;94684.47;5014920;28;20054;-67
2022/08/13 10:04:29;;;;;;;13.35;9.18;;;;;;;22.65;78.73;94689.31;5002851;28;20119;-68
2022/08/13 10:07:00;;;;;;;;;;;;;;;22.62;78.57;94684.59;5007825;28;20052;-66
2022/08/13 10:09:46;;;;;;;12.88;8.88;;;;;;;22.55;80.14;94684.28;5020956;28;19929;-66
2022/08/13 10:12:35;;;;;;;12.77;8.95;;;;;;;22.51;80.92;94683.34;5013855;28;20044;-67
2022/08/13 10:15:02;;;;;;;11.13;9.05;;;;;;;22.57;81.57;94682.09;5027130;28;20176;-65
2022/08/13 10:18:03;;;;;;;16.00;12.25;;;;;;;22.66;79.91;94685.53;5023049;28;20061;-65
2022/08/13 10:20:45;;;;;;;10.88;7.78;;;;;;;22.71;78.22;94674.78;5021336;28;20525;-66
2022/08/13 10:23:14;;;;;;;10.32;8.50;;;;;;;22.77;77.82;94675.41;5026220;28;20049;-66
2022/08/13 10:25:43;;;;;;;11.27;8.48;;;;;;;22.85;77.45;94673.84;5025055;28;20047;-65
2022/08/13 10:28:25;;;;;;;17.60;8.50;;;;;;;22.99;76.07;94671.81;5021246;28;20430;-68
2022/08/13 10:31:08;;;;;;;10.57;8.50;;;;;;;23.15;73.53;94668.72;5019731;28;20831;-70
2022/08/13 10:33:55;;;;;;;11.70;8.50;;;;;;;23.18;71.82;94668.09;5005347;28;20045;-73
2022/08/13 10:36:25;;;;;;;13.52;8.07;;;;;;;23.33;73.34;94670.25;5019093;28;20061;-71
2022/08/13 10:39:00;;;;;;;12.40;8.15;;;;;;;23.48;70.57;94664.44;5003642;28;20936;-72
2022/08/13 10:41:30;;;;;;;11.82;8.50;;;;;;;23.64;71.11;94663.91;5023189;28;20051;-74
2022/08/13 10:44:02;;;;;;;12.90;8.30;;;;;;;23.85;70.86;94664.81;5022325;28;20041;-69
2022/08/13 10:46:31;;;;;;;16.70;8.45;;;;;;;23.95;71.16;94653.03;5004216;28;20427;-70
2022/08/13 10:49:04;;;;;;;12.55;8.90;;;;;;;24.13;69.03;94658.25;5022372;28;20047;-71
2022/08/13 10:51:31;;;;;;;10.02;8.13;;;;;;;24.30;68.07;94652.06;5002220;28;20041;-69
2022/08/13 10:54:11;;;;;;;10.80;8.50;;;;;;;24.37;66.83;94652.34;5020646;28;20096;-68
2022/08/13 10:56:58;;;;;;;14.63;7.93;;;;;;;24.68;66.46;94651.22;5007856;28;20052;-69
2022/08/13 10:59:25;;;;;;;14.73;8.40;;;;;;;24.80;65.34;94648.63;5024931;28;20164;-70
2022/08/13 11:01:52;;;;;;;8.35;7.45;;;;;;;24.97;64.14;94655.69;4991900;28;20056;-68
2022/08/13 11:04:19;;;;;;;12.27;8.35;;;;;;;25.16;65.36;94650.66;5016756;28;20550;-69
2022/08/13 11:06:58;;;;;;;15.88;7.55;;;;;;;25.30;61.47;94655.75;5015079;28;20076;-69
2022/08/13 11:09:28;;;;;;;11.05;8.90;;;;;;;25.45;62.67;94650.91;5016603;28;20044;-68
2022/08/13 11:12:08;;;;;;;8.38;7.20;;;;;;;25.59;62.40;94658.56;4997431;28;20041;-68
2022/08/13 11:14:35;;;;;;;9.23;7.60;;;;;;;25.54;61.10;94651.59;5005137;28;20057;-69
2022/08/13 11:17:09;;;;;;;10.00;8.10;;;;;;;25.35;62.61;94647.53;5022297;28;20045;-68
2022/08/13 11:19:56;;;;;;;11.73;8.68;;;;;;;25.51;62.64;94644.25;5009572;28;20465;-67
2022/08/13 11:22:29;;;;;;;;;;;;;;;25.70;61.02;94639.16;5020764;28;20029;-68
2022/08/13 11:25:00;;;;;;;14.98;8.20;;;;;;;25.70;60.37;94641.81;5019622;28;19987;-68
2022/08/13 11:27:44;;;;;;;11.43;8.10;;;;;;;25.32;61.78;94616.22;5015450;28;20505;-68
2022/08/13 11:30:17;;;;;;;;;;;;;;;25.37;61.23;94634.66;5020137;28;20049;-68
2022/08/13 11:33:02;;;;;;;11.88;8.75;;;;;;;25.42;60.88;94633.66;5019397;28;19925;-68
2022/08/13 11:35:34;;;;;;;11.20;8.57;;;;;;;25.40;59.83;94637.78;5016036;28;20061;-68
2022/08/13 11:38:11;;;;;;;15.07;9.40;;;;;;;25.35;59.67;94612.91;5022455;28;20064;-68
2022/08/13 11:41:00;;;;;;;12.93;8.98;;;;;;;25.30;59.65;94629.09;5021127;28;20481;-68
2022/08/13 11:43:30;;;;;;;15.07;7.85;;;;;;;25.21;60.13;94631.03;5021632;28;20034;-67
2022/08/13 11:46:17;;;;;;;13.13;8.43;;;;;;;25.09;61.43;94631.00;5022095;28;20049;-67
2022/08/13 11:48:46;;;;;;;16.65;9.00;;;;;;;25.13;60.66;94632.66;5016599;28;20077;-66
2022/08/13 11:51:33;;;;;;;9.65;7.72;;;;;;;25.27;59.64;94636.97;4971939;28;20049;-67
2022/08/13 11:54:22;;;;;;;12.05;8.68;;;;;;;25.30;59.87;94639.75;5022585;28;20061;-66
2022/08/13 11:57:01;;;;;;;11.07;7.78;;;;;;;25.04;62.28;94631.19;5022337;28;20119;-67
2022/08/13 11:59:27;;;;;;;19.95;8.73;;;;;;;25.13;64.61;94629.22;5025838;28;20067;-69
2022/08/13 12:02:07;;;;;;;13.40;9.48;;;;;;;25.11;65.09;94636.78;5006322;28;20124;-67
2022/08/13 12:04:43;;;;;;;14.73;9.48;;;;;;;24.98;65.18;94623.41;5021778;28;20541;-68
2022/08/13 12:07:26;;;;;;;9.70;8.18;;;;;;;25.25;65.77;94631.97;5021069;28;20056;-68
2022/08/13 12:09:54;;;;;;;10.98;8.75;;;;;;;25.28;63.74;94631.31;5021164;28;20045;-66
2022/08/13 12:12:25;;;;;;;11.23;8.20;;;;;;;25.17;64.19;94624.78;5003029;28;20052;-68
2022/08/13 12:14:58;;;;;;;11.27;7.97;;;;;;;25.15;65.81;94633.09;5022777;28;20503;-67
2022/08/13 12:17:25;;;;;;;13.68;8.40;;;;;;;25.37;64.11;94642.66;5024779;28;20071;-67
2022/08/13 12:20:19;;;;;;;11.10;6.47;;;;;;;25.41;61.29;94640.13;5019729;28;20484;-68
2022/08/13 12:22:51;;;;;;;8.60;6.60;;;;;;;25.45;60.41;94653.56;5021135;28;20046;-68
2022/08/13 12:25:21;;;;;;;7.78;6.13;;;;;;;25.04;63.34;94649.84;5022694;28;20045;-67